sensor_id;sensor_type;location;lat;lon;timestamp;pressure;altitude;pressure_sealevel;temperature;humidity
76940;BME280;65885;55.848;35.916;2023-03-14T00:01:12;98707.38;;;-0.96;64.21
76940;BME280;65885;55.848;35.916;2023-03-14T00:03:41;98718.44;;;-0.85;63.67
76940;BME280;65885;55.848;35.916;2023-03-14T00:06:10;98708.06;;;-0.72;63.76
76940;BME280;65885;55.848;35.916;2023-03-14T00:08:38;98701.97;;;-0.64;63.74
76940;BME280;65885;55.848;35.916;2023-03-14T00:11:08;98701.03;;;-0.55;63.55
76940;BME280;65885;55.848;35.916;2023-03-14T00:13:36;98700.97;;;-0.49;62.85
76940;BME280;65885;55.848;35.916;2023-03-14T00:16:05;98696.72;;;-0.51;62.98
76940;BME280;65885;55.848;35.916;2023-03-14T00:18:33;98676.19;;;-0.59;63.09
76940;BME280;65885;55.848;35.916;2023-03-14T00:21:02;98680.56;;;-0.69;62.97
76940;BME280;65885;55.848;35.916;2023-03-14T00:23:31;98672.09;;;-0.81;63.63
76940;BME280;65885;55.848;35.916;2023-03-14T00:25:59;98656.75;;;-0.94;64.05
76940;BME280;65885;55.848;35.916;2023-03-14T00:28:29;98668.81;;;-1.00;64.41
76940;BME280;65885;55.848;35.916;2023-03-14T00:30:57;98647.44;;;-1.10;64.88
76940;BME280;65885;55.848;35.916;2023-03-14T00:33:24;98649.22;;;-1.18;64.96
76940;BME280;65885;55.848;35.916;2023-03-14T00:35:53;98632.09;;;-1.22;65.67
76940;BME280;65885;55.848;35.916;2023-03-14T00:38:21;98626.09;;;-1.18;65.56
76940;BME280;65885;55.848;35.916;2023-03-14T00:40:50;98619.97;;;-1.05;66.16
76940;BME280;65885;55.848;35.916;2023-03-14T00:43:18;98617.28;;;-0.90;66.11
76940;BME280;65885;55.848;35.916;2023-03-14T00:45:48;98607.66;;;-0.71;66.13
76940;BME280;65885;55.848;35.916;2023-03-14T00:48:16;98590.28;;;-0.53;65.89
76940;BME280;65885;55.848;35.916;2023-03-14T00:50:43;98579.81;;;-0.37;65.45
76940;BME280;65885;55.848;35.916;2023-03-14T00:53:11;98583.91;;;-0.20;65.45
76940;BME280;65885;55.848;35.916;2023-03-14T00:55:39;98591.44;;;-0.05;65.22
76940;BME280;65885;55.848;35.916;2023-03-14T00:58:08;98579.25;;;0.09;64.89
76940;BME280;65885;55.848;35.916;2023-03-14T01:00:36;98579.09;;;0.20;64.81
76940;BME280;65885;55.848;35.916;2023-03-14T01:03:05;98579.00;;;0.26;63.85
76940;BME280;65885;55.848;35.916;2023-03-14T01:05:33;98571.31;;;0.23;64.40
76940;BME280;65885;55.848;35.916;2023-03-14T01:08:01;98574.81;;;0.17;64.11
76940;BME280;65885;55.848;35.916;2023-03-14T01:10:29;98566.38;;;0.06;64.42
76940;BME280;65885;55.848;35.916;2023-03-14T01:12:57;98574.25;;;-0.05;64.88
76940;BME280;65885;55.848;35.916;2023-03-14T01:15:25;98571.81;;;-0.14;65.15
76940;BME280;65885;55.848;35.916;2023-03-14T01:17:53;98565.06;;;-0.22;65.57
76940;BME280;65885;55.848;35.916;2023-03-14T01:20:21;98557.44;;;-0.30;66.08
76940;BME280;65885;55.848;35.916;2023-03-14T01:22:49;98571.22;;;-0.36;65.80
76940;BME280;65885;55.848;35.916;2023-03-14T01:25:17;98566.09;;;-0.39;66.67
76940;BME280;65885;55.848;35.916;2023-03-14T01:27:44;98561.69;;;-0.31;66.84
76940;BME280;65885;55.848;35.916;2023-03-14T01:30:12;98540.94;;;-0.18;67.01
76940;BME280;65885;55.848;35.916;2023-03-14T01:32:40;98520.13;;;-0.03;67.16
76940;BME280;65885;55.848;35.916;2023-03-14T01:35:08;98528.44;;;0.14;66.34
76940;BME280;65885;55.848;35.916;2023-03-14T01:37:37;98526.47;;;0.33;66.63
76940;BME280;65885;55.848;35.916;2023-03-14T01:40:05;98518.50;;;0.48;66.53
76940;BME280;65885;55.848;35.916;2023-03-14T01:42:32;98493.34;;;0.61;66.30
76940;BME280;65885;55.848;35.916;2023-03-14T01:45:01;98490.50;;;0.75;66.13
76940;BME280;65885;55.848;35.916;2023-03-14T01:47:29;98490.31;;;0.87;66.10
76940;BME280;65885;55.848;35.916;2023-03-14T01:49:59;98482.34;;;0.98;65.44
76940;BME280;65885;55.848;35.916;2023-03-14T01:52:29;98481.34;;;1.05;65.30
76940;BME280;65885;55.848;35.916;2023-03-14T01:55:04;98484.81;;;1.04;65.03
76940;BME280;65885;55.848;35.916;2023-03-14T01:57:36;98478.06;;;0.97;64.95
76940;BME280;65885;55.848;35.916;2023-03-14T02:00:06;98462.75;;;0.88;65.72
76940;BME280;65885;55.848;35.916;2023-03-14T02:02:38;98470.69;;;0.78;65.97
76940;BME280;65885;55.848;35.916;2023-03-14T02:05:07;98467.44;;;0.69;66.06
76940;BME280;65885;55.848;35.916;2023-03-14T02:07:37;98452.13;;;0.58;66.14
76940;BME280;65885;55.848;35.916;2023-03-14T02:10:09;98438.50;;;0.50;66.53
76940;BME280;65885;55.848;35.916;2023-03-14T02:12:39;98447.19;;;0.44;67.17
76940;BME280;65885;55.848;35.916;2023-03-14T02:15:07;98449.00;;;0.41;67.05
76940;BME280;65885;55.848;35.916;2023-03-14T02:17:35;98438.66;;;0.41;68.07
76940;BME280;65885;55.848;35.916;2023-03-14T02:20:27;98438.44;;;0.54;68.47
76940;BME280;65885;55.848;35.916;2023-03-14T02:22:57;98439.81;;;0.72;68.04
76940;BME280;65885;55.848;35.916;2023-03-14T02:25:33;98442.91;;;0.93;67.79
76940;BME280;65885;55.848;35.916;2023-03-14T02:28:04;98447.66;;;1.13;67.50
76940;BME280;65885;55.848;35.916;2023-03-14T02:30:32;98452.47;;;1.31;67.71
76940;BME280;65885;55.848;35.916;2023-03-14T02:33:03;98438.31;;;1.49;67.38
76940;BME280;65885;55.848;35.916;2023-03-14T02:35:34;98431.06;;;1.64;67.14
76940;BME280;65885;55.848;35.916;2023-03-14T02:38:07;98444.50;;;1.80;67.17
76940;BME280;65885;55.848;35.916;2023-03-14T02:40:37;98440.81;;;1.92;65.98
76940;BME280;65885;55.848;35.916;2023-03-14T02:43:06;98441.59;;;1.94;65.71
76940;BME280;65885;55.848;35.916;2023-03-14T02:45:41;98432.25;;;1.90;66.13
76940;BME280;65885;55.848;35.916;2023-03-14T02:48:15;98421.19;;;1.83;66.27
76940;BME280;65885;55.848;35.916;2023-03-14T02:50:44;98422.25;;;1.75;66.24
76940;BME280;65885;55.848;35.916;2023-03-14T02:53:15;98415.47;;;1.69;66.88
76940;BME280;65885;55.848;35.916;2023-03-14T02:55:45;98407.84;;;1.63;66.87
76940;BME280;65885;55.848;35.916;2023-03-14T02:58:15;98406.25;;;1.59;66.89
76940;BME280;65885;55.848;35.916;2023-03-14T03:00:43;98403.75;;;1.54;68.09
76940;BME280;65885;55.848;35.916;2023-03-14T03:03:10;98387.44;;;1.52;67.78
76940;BME280;65885;55.848;35.916;2023-03-14T03:05:38;98395.06;;;1.57;68.20
76940;BME280;65885;55.848;35.916;2023-03-14T03:08:06;98393.09;;;1.68;68.56
76940;BME280;65885;55.848;35.916;2023-03-14T03:10:33;98383.19;;;1.87;68.47
76940;BME280;65885;55.848;35.916;2023-03-14T03:13:00;98377.59;;;2.04;68.14
76940;BME280;65885;55.848;35.916;2023-03-14T03:15:29;98379.75;;;2.22;67.87
76940;BME280;65885;55.848;35.916;2023-03-14T03:17:56;98368.06;;;2.40;67.51
76940;BME280;65885;55.848;35.916;2023-03-14T03:20:24;98352.13;;;2.55;66.93
76940;BME280;65885;55.848;35.916;2023-03-14T03:22:51;98364.75;;;2.67;67.11
76940;BME280;65885;55.848;35.916;2023-03-14T03:25:18;98358.38;;;2.79;66.47
76940;BME280;65885;55.848;35.916;2023-03-14T03:27:46;98366.75;;;2.89;66.35
76940;BME280;65885;55.848;35.916;2023-03-14T03:30:14;98360.59;;;2.93;66.41
76940;BME280;65885;55.848;35.916;2023-03-14T03:32:44;98373.63;;;2.90;65.50
76940;BME280;65885;55.848;35.916;2023-03-14T03:35:11;98373.88;;;2.81;65.87
76940;BME280;65885;55.848;35.916;2023-03-14T03:37:39;98377.59;;;2.70;66.04
76940;BME280;65885;55.848;35.916;2023-03-14T03:40:08;98358.88;;;2.61;66.23
76940;BME280;65885;55.848;35.916;2023-03-14T03:42:36;98366.06;;;2.51;67.29
76940;BME280;65885;55.848;35.916;2023-03-14T03:45:04;98360.25;;;2.43;67.31
76940;BME280;65885;55.848;35.916;2023-03-14T03:47:31;98352.69;;;2.34;67.16
76940;BME280;65885;55.848;35.916;2023-03-14T03:50:01;98348.56;;;2.28;67.98
76940;BME280;65885;55.848;35.916;2023-03-14T03:52:29;98343.53;;;2.22;68.26
76940;BME280;65885;55.848;35.916;2023-03-14T03:54:56;98337.56;;;2.18;68.27
76940;BME280;65885;55.848;35.916;2023-03-14T03:57:23;98328.94;;;2.19;69.38
76940;BME280;65885;55.848;35.916;2023-03-14T03:59:51;98327.75;;;2.31;69.15
76940;BME280;65885;55.848;35.916;2023-03-14T04:02:18;98331.63;;;2.47;69.34
76940;BME280;65885;55.848;35.916;2023-03-14T04:04:45;98321.66;;;2.66;68.62
76940;BME280;65885;55.848;35.916;2023-03-14T04:07:14;98318.47;;;2.86;68.60
76940;BME280;65885;55.848;35.916;2023-03-14T04:09:41;98308.53;;;3.02;67.79
76940;BME280;65885;55.848;35.916;2023-03-14T04:12:09;98292.50;;;3.17;67.80
76940;BME280;65885;55.848;35.916;2023-03-14T04:14:36;98296.44;;;3.30;67.31
76940;BME280;65885;55.848;35.916;2023-03-14T04:17:04;98288.25;;;3.44;66.91
76940;BME280;65885;55.848;35.916;2023-03-14T04:19:31;98299.16;;;3.54;66.30
76940;BME280;65885;55.848;35.916;2023-03-14T04:21:58;98298.13;;;3.59;66.01
76940;BME280;65885;55.848;35.916;2023-03-14T04:24:27;98276.66;;;3.54;66.34
76940;BME280;65885;55.848;35.916;2023-03-14T04:26:54;98272.59;;;3.47;66.07
76940;BME280;65885;55.848;35.916;2023-03-14T04:29:21;98284.09;;;3.39;66.55
76940;BME280;65885;55.848;35.916;2023-03-14T04:31:49;98291.38;;;3.27;66.41
76940;BME280;65885;55.848;35.916;2023-03-14T04:34:19;98274.38;;;3.17;66.76
76940;BME280;65885;55.848;35.916;2023-03-14T04:36:46;98270.38;;;3.07;67.40
76940;BME280;65885;55.848;35.916;2023-03-14T04:39:13;98255.13;;;2.98;67.54
76940;BME280;65885;55.848;35.916;2023-03-14T04:41:44;98269.09;;;2.92;67.51
76940;BME280;65885;55.848;35.916;2023-03-14T04:44:12;98272.78;;;2.85;68.49
76940;BME280;65885;55.848;35.916;2023-03-14T04:46:39;98276.38;;;2.79;68.81
76940;BME280;65885;55.848;35.916;2023-03-14T04:49:09;98280.59;;;2.84;68.66
76940;BME280;65885;55.848;35.916;2023-03-14T04:51:36;98255.19;;;2.96;69.29
76940;BME280;65885;55.848;35.916;2023-03-14T04:54:04;98252.06;;;3.13;69.07
76940;BME280;65885;55.848;35.916;2023-03-14T04:56:31;98259.31;;;3.30;68.72
76940;BME280;65885;55.848;35.916;2023-03-14T04:59:00;98258.75;;;3.48;67.88
76940;BME280;65885;55.848;35.916;2023-03-14T05:01:27;98261.72;;;3.62;67.58
76940;BME280;65885;55.848;35.916;2023-03-14T05:03:55;98273.38;;;3.76;67.29
76940;BME280;65885;55.848;35.916;2023-03-14T05:06:22;98278.13;;;3.89;66.82
76940;BME280;65885;55.848;35.916;2023-03-14T05:08:50;98299.41;;;3.99;66.19
76940;BME280;65885;55.848;35.916;2023-03-14T05:11:18;98292.22;;;4.07;66.16
76940;BME280;65885;55.848;35.916;2023-03-14T05:13:45;98303.44;;;4.08;65.84
76940;BME280;65885;55.848;35.916;2023-03-14T05:16:14;98298.34;;;4.05;65.85
76940;BME280;65885;55.848;35.916;2023-03-14T05:18:41;98310.78;;;3.95;65.94
76940;BME280;65885;55.848;35.916;2023-03-14T05:21:09;98323.31;;;3.82;66.14
76940;BME280;65885;55.848;35.916;2023-03-14T05:23:36;98308.97;;;3.72;66.17
76940;BME280;65885;55.848;35.916;2023-03-14T05:26:03;98330.88;;;3.62;66.47
76940;BME280;65885;55.848;35.916;2023-03-14T05:28:31;98327.72;;;3.52;66.91
76940;BME280;65885;55.848;35.916;2023-03-14T05:30:58;98315.00;;;3.45;67.19
76940;BME280;65885;55.848;35.916;2023-03-14T05:33:27;98327.25;;;3.40;67.58
76940;BME280;65885;55.848;35.916;2023-03-14T05:35:54;98309.22;;;3.37;67.48
76940;BME280;65885;55.848;35.916;2023-03-14T05:38:21;98315.34;;;3.34;68.21
76940;BME280;65885;55.848;35.916;2023-03-14T05:40:49;98334.16;;;3.39;68.12
76940;BME280;65885;55.848;35.916;2023-03-14T05:43:16;98328.50;;;3.54;68.45
76940;BME280;65885;55.848;35.916;2023-03-14T05:45:43;98313.25;;;3.73;68.29
76940;BME280;65885;55.848;35.916;2023-03-14T05:48:11;98320.41;;;3.92;68.20
76940;BME280;65885;55.848;35.916;2023-03-14T05:50:40;98317.16;;;4.11;67.38
76940;BME280;65885;55.848;35.916;2023-03-14T05:53:07;98333.81;;;4.31;66.78
76940;BME280;65885;55.848;35.916;2023-03-14T05:55:34;98318.56;;;4.47;66.43
76940;BME280;65885;55.848;35.916;2023-03-14T05:58:02;98316.28;;;4.61;65.94
76940;BME280;65885;55.848;35.916;2023-03-14T06:00:29;98321.91;;;4.73;65.66
76940;BME280;65885;55.848;35.916;2023-03-14T06:02:57;98325.81;;;4.85;65.37
76940;BME280;65885;55.848;35.916;2023-03-14T06:05:24;98327.28;;;4.92;65.19
76940;BME280;65885;55.848;35.916;2023-03-14T06:07:53;98330.53;;;4.97;64.80
76940;BME280;65885;55.848;35.916;2023-03-14T06:10:21;98324.63;;;4.94;64.64
76940;BME280;65885;55.848;35.916;2023-03-14T06:12:48;98326.59;;;4.87;64.35
76940;BME280;65885;55.848;35.916;2023-03-14T06:15:15;98328.69;;;4.78;64.68
76940;BME280;65885;55.848;35.916;2023-03-14T06:17:43;98328.22;;;4.66;64.79
76940;BME280;65885;55.848;35.916;2023-03-14T06:20:11;98308.69;;;4.56;65.00
76940;BME280;65885;55.848;35.916;2023-03-14T06:22:39;98315.84;;;4.50;65.17
76940;BME280;65885;55.848;35.916;2023-03-14T06:25:09;98303.06;;;4.43;65.79
76940;BME280;65885;55.848;35.916;2023-03-14T06:27:37;98301.53;;;4.38;65.92
76940;BME280;65885;55.848;35.916;2023-03-14T06:30:05;98307.75;;;4.34;66.28
76940;BME280;65885;55.848;35.916;2023-03-14T06:32:33;98308.72;;;4.31;66.50
76940;BME280;65885;55.848;35.916;2023-03-14T06:35:00;98305.22;;;4.32;66.97
76940;BME280;65885;55.848;35.916;2023-03-14T06:37:29;98302.22;;;4.43;66.87
76940;BME280;65885;55.848;35.916;2023-03-14T06:39:57;98300.00;;;4.57;67.17
76940;BME280;65885;55.848;35.916;2023-03-14T06:42:27;98300.06;;;4.79;66.76
76940;BME280;65885;55.848;35.916;2023-03-14T06:44:54;98314.94;;;4.99;67.14
76940;BME280;65885;55.848;35.916;2023-03-14T06:47:21;98301.84;;;5.24;66.13
76940;BME280;65885;55.848;35.916;2023-03-14T06:49:49;98305.41;;;5.43;65.42
76940;BME280;65885;55.848;35.916;2023-03-14T06:52:16;98282.22;;;5.61;65.31
76940;BME280;65885;55.848;35.916;2023-03-14T06:54:44;98300.50;;;5.79;64.93
76940;BME280;65885;55.848;35.916;2023-03-14T06:57:11;98318.13;;;5.95;64.28
76940;BME280;65885;55.848;35.916;2023-03-14T06:59:40;98321.19;;;6.04;63.94
76940;BME280;65885;55.848;35.916;2023-03-14T07:02:10;98322.75;;;6.08;63.82
76940;BME280;65885;55.848;35.916;2023-03-14T07:04:38;98316.97;;;6.02;64.02
76940;BME280;65885;55.848;35.916;2023-03-14T07:07:05;98321.56;;;5.95;64.17
76940;BME280;65885;55.848;35.916;2023-03-14T07:09:33;98315.81;;;5.87;64.08
76940;BME280;65885;55.848;35.916;2023-03-14T07:12:01;98310.91;;;5.79;64.01
76940;BME280;65885;55.848;35.916;2023-03-14T07:14:30;98318.91;;;5.75;64.83
76940;BME280;65885;55.848;35.916;2023-03-14T07:16:59;98317.41;;;5.69;64.71
76940;BME280;65885;55.848;35.916;2023-03-14T07:19:26;98308.84;;;5.66;65.17
76940;BME280;65885;55.848;35.916;2023-03-14T07:21:56;98306.31;;;5.64;65.71
76940;BME280;65885;55.848;35.916;2023-03-14T07:24:23;98303.56;;;5.69;65.83
76940;BME280;65885;55.848;35.916;2023-03-14T07:26:52;98312.81;;;5.76;66.27
76940;BME280;65885;55.848;35.916;2023-03-14T07:29:19;98308.69;;;5.92;65.99
76940;BME280;65885;55.848;35.916;2023-03-14T07:31:47;98312.09;;;6.15;66.27
76940;BME280;65885;55.848;35.916;2023-03-14T07:34:16;98316.25;;;6.39;66.16
76940;BME280;65885;55.848;35.916;2023-03-14T07:36:43;98335.34;;;6.60;64.90
76940;BME280;65885;55.848;35.916;2023-03-14T07:39:11;98342.06;;;6.84;64.60
76940;BME280;65885;55.848;35.916;2023-03-14T07:41:39;98338.50;;;7.06;63.69
76940;BME280;65885;55.848;35.916;2023-03-14T07:44:06;98323.94;;;7.20;63.37
76940;BME280;65885;55.848;35.916;2023-03-14T07:46:33;98342.69;;;7.29;62.93
76940;BME280;65885;55.848;35.916;2023-03-14T07:49:01;98328.72;;;7.30;63.50
76940;BME280;65885;55.848;35.916;2023-03-14T07:51:30;98330.66;;;7.26;63.37
76940;BME280;65885;55.848;35.916;2023-03-14T07:53:57;98335.91;;;7.24;63.08
76940;BME280;65885;55.848;35.916;2023-03-14T07:56:24;98330.84;;;7.21;63.54
76940;BME280;65885;55.848;35.916;2023-03-14T07:58:52;98329.34;;;7.16;63.02
76940;BME280;65885;55.848;35.916;2023-03-14T08:01:19;98333.94;;;7.11;63.33
76940;BME280;65885;55.848;35.916;2023-03-14T08:03:47;98330.63;;;7.07;62.76
76940;BME280;65885;55.848;35.916;2023-03-14T08:06:14;98333.38;;;7.04;63.58
76940;BME280;65885;55.848;35.916;2023-03-14T08:08:43;98342.16;;;7.02;63.82
76940;BME280;65885;55.848;35.916;2023-03-14T08:11:11;98328.38;;;7.00;62.81
76940;BME280;65885;55.848;35.916;2023-03-14T08:13:38;98317.25;;;6.96;63.49
76940;BME280;65885;55.848;35.916;2023-03-14T08:16:06;98329.28;;;6.99;64.29
76940;BME280;65885;55.848;35.916;2023-03-14T08:18:34;98322.59;;;7.12;63.82
76940;BME280;65885;55.848;35.916;2023-03-14T08:21:03;98316.75;;;7.26;63.71
76940;BME280;65885;55.848;35.916;2023-03-14T08:23:30;98324.63;;;7.43;63.71
76940;BME280;65885;55.848;35.916;2023-03-14T08:25:59;98326.94;;;7.68;62.52
76940;BME280;65885;55.848;35.916;2023-03-14T08:28:26;98330.47;;;7.84;62.01
76940;BME280;65885;55.848;35.916;2023-03-14T08:30:56;98324.50;;;7.99;61.86
76940;BME280;65885;55.848;35.916;2023-03-14T08:33:24;98329.22;;;8.10;60.78
76940;BME280;65885;55.848;35.916;2023-03-14T08:35:52;98346.97;;;8.21;59.82
76940;BME280;65885;55.848;35.916;2023-03-14T08:38:20;98343.69;;;8.17;59.64
76940;BME280;65885;55.848;35.916;2023-03-14T08:40:47;98339.75;;;8.09;59.89
76940;BME280;65885;55.848;35.916;2023-03-14T08:43:19;98329.97;;;7.95;59.93
76940;BME280;65885;55.848;35.916;2023-03-14T08:45:46;98321.97;;;7.81;60.27
76940;BME280;65885;55.848;35.916;2023-03-14T08:48:14;98326.09;;;7.67;61.34
76940;BME280;65885;55.848;35.916;2023-03-14T08:50:41;98317.06;;;7.56;61.69
76940;BME280;65885;55.848;35.916;2023-03-14T08:53:09;98336.59;;;7.47;61.68
76940;BME280;65885;55.848;35.916;2023-03-14T08:55:37;98351.78;;;7.39;61.84
76940;BME280;65885;55.848;35.916;2023-03-14T08:58:04;98339.94;;;7.32;62.71
76940;BME280;65885;55.848;35.916;2023-03-14T09:00:33;98359.25;;;7.28;62.27
76940;BME280;65885;55.848;35.916;2023-03-14T09:03:00;98364.75;;;7.21;62.76
76940;BME280;65885;55.848;35.916;2023-03-14T09:05:28;98368.47;;;7.16;62.32
76940;BME280;65885;55.848;35.916;2023-03-14T09:07:59;98357.59;;;7.06;62.82
76940;BME280;65885;55.848;35.916;2023-03-14T09:10:27;98363.75;;;7.05;63.38
76940;BME280;65885;55.848;35.916;2023-03-14T09:12:54;98355.69;;;7.10;63.44
76940;BME280;65885;55.848;35.916;2023-03-14T09:15:23;98338.75;;;7.20;63.77
76940;BME280;65885;55.848;35.916;2023-03-14T09:17:52;98345.94;;;7.34;62.62
76940;BME280;65885;55.848;35.916;2023-03-14T09:20:20;98346.19;;;7.46;62.98
76940;BME280;65885;55.848;35.916;2023-03-14T09:22:47;98357.97;;;7.55;62.40
76940;BME280;65885;55.848;35.916;2023-03-14T09:25:15;98354.03;;;7.65;61.56
76940;BME280;65885;55.848;35.916;2023-03-14T09:27:42;98358.88;;;7.73;61.89
76940;BME280;65885;55.848;35.916;2023-03-14T09:30:10;98364.88;;;7.75;61.65
76940;BME280;65885;55.848;35.916;2023-03-14T09:32:38;98365.94;;;7.71;61.12
76940;BME280;65885;55.848;35.916;2023-03-14T09:35:08;98352.19;;;7.67;61.05
76940;BME280;65885;55.848;35.916;2023-03-14T09:37:36;98350.13;;;7.55;61.83
76940;BME280;65885;55.848;35.916;2023-03-14T09:40:04;98354.75;;;7.50;62.22
76940;BME280;65885;55.848;35.916;2023-03-14T09:42:37;98346.44;;;7.42;63.03
76940;BME280;65885;55.848;35.916;2023-03-14T09:45:11;98337.97;;;7.37;63.16
76940;BME280;65885;55.848;35.916;2023-03-14T09:47:40;98331.19;;;7.33;63.63
76940;BME280;65885;55.848;35.916;2023-03-14T09:50:13;98352.13;;;7.31;63.37
76940;BME280;65885;55.848;35.916;2023-03-14T09:52:43;98346.28;;;7.26;63.75
76940;BME280;65885;55.848;35.916;2023-03-14T09:55:13;98338.50;;;7.24;63.30
76940;BME280;65885;55.848;35.916;2023-03-14T09:57:43;98353.38;;;7.22;63.92
76940;BME280;65885;55.848;35.916;2023-03-14T10:00:16;98341.28;;;7.21;64.10
76940;BME280;65885;55.848;35.916;2023-03-14T10:02:49;98316.88;;;7.22;63.37
76940;BME280;65885;55.848;35.916;2023-03-14T10:05:21;98296.88;;;7.23;63.59
76940;BME280;65885;55.848;35.916;2023-03-14T10:07:49;98293.78;;;7.34;64.26
76940;BME280;65885;55.848;35.916;2023-03-14T10:10:19;98301.41;;;7.56;64.54
76940;BME280;65885;55.848;35.916;2023-03-14T10:12:47;98287.88;;;7.84;64.55
76940;BME280;65885;55.848;35.916;2023-03-14T10:15:27;98280.28;;;8.14;63.71
76940;BME280;65885;55.848;35.916;2023-03-14T10:17:58;98283.22;;;8.42;62.89
76940;BME280;65885;55.848;35.916;2023-03-14T10:20:31;98277.47;;;8.69;62.48
76940;BME280;65885;55.848;35.916;2023-03-14T10:23:00;98278.28;;;8.86;62.36
76940;BME280;65885;55.848;35.916;2023-03-14T10:25:32;98275.94;;;8.98;61.98
76940;BME280;65885;55.848;35.916;2023-03-14T10:28:00;98262.53;;;9.04;61.17
76940;BME280;65885;55.848;35.916;2023-03-14T10:30:39;98258.84;;;9.08;61.23
76940;BME280;65885;55.848;35.916;2023-03-14T10:33:11;98247.16;;;9.13;61.67
76940;BME280;65885;55.848;35.916;2023-03-14T10:35:42;98242.34;;;9.22;61.85
76940;BME280;65885;55.848;35.916;2023-03-14T10:38:13;98255.69;;;9.33;61.43
76940;BME280;65885;55.848;35.916;2023-03-14T10:40:48;98251.63;;;9.43;60.88
76940;BME280;65885;55.848;35.916;2023-03-14T10:43:18;98252.88;;;9.52;61.11
76940;BME280;65885;55.848;35.916;2023-03-14T10:45:52;98261.00;;;9.63;60.53
76940;BME280;65885;55.848;35.916;2023-03-14T10:48:29;98268.41;;;9.70;60.08
76940;BME280;65885;55.848;35.916;2023-03-14T10:51:04;98258.59;;;9.74;59.37
76940;BME280;65885;55.848;35.916;2023-03-14T10:53:40;98261.31;;;9.72;58.00
76940;BME280;65885;55.848;35.916;2023-03-14T10:56:11;98262.59;;;9.65;58.35
76940;BME280;65885;55.848;35.916;2023-03-14T10:58:41;98251.06;;;9.54;58.42
76940;BME280;65885;55.848;35.916;2023-03-14T11:01:27;98266.16;;;9.49;58.63
76940;BME280;65885;55.848;35.916;2023-03-14T11:04:00;98282.38;;;9.55;58.18
76940;BME280;65885;55.848;35.916;2023-03-14T11:06:38;98267.25;;;9.60;58.18
76940;BME280;65885;55.848;35.916;2023-03-14T11:09:15;98276.25;;;9.70;57.15
76940;BME280;65885;55.848;35.916;2023-03-14T11:11:47;98260.31;;;9.75;56.53
76940;BME280;65885;55.848;35.916;2023-03-14T11:14:21;98275.91;;;9.77;57.22
76940;BME280;65885;55.848;35.916;2023-03-14T11:16:59;98277.31;;;9.82;56.29
76940;BME280;65885;55.848;35.916;2023-03-14T11:19:43;98282.16;;;9.74;56.79
76940;BME280;65885;55.848;35.916;2023-03-14T11:22:26;98287.16;;;9.63;57.16
76940;BME280;65885;55.848;35.916;2023-03-14T11:25:21;98299.44;;;9.47;57.21
76940;BME280;65885;55.848;35.916;2023-03-14T11:28:03;98296.97;;;9.28;57.45
76940;BME280;65885;55.848;35.916;2023-03-14T11:30:39;98298.81;;;9.10;58.33
76940;BME280;65885;55.848;35.916;2023-03-14T11:33:15;98310.09;;;8.95;57.51
76940;BME280;65885;55.848;35.916;2023-03-14T11:35:47;98292.63;;;8.79;57.73
76940;BME280;65885;55.848;35.916;2023-03-14T11:38:28;98296.03;;;8.64;58.85
76940;BME280;65885;55.848;35.916;2023-03-14T11:40:57;98304.50;;;8.52;58.50
76940;BME280;65885;55.848;35.916;2023-03-14T11:43:29;98302.56;;;8.38;58.77
76940;BME280;65885;55.848;35.916;2023-03-14T11:46:03;98317.94;;;8.27;59.40
76940;BME280;65885;55.848;35.916;2023-03-14T11:48:37;98325.41;;;8.17;60.06
76940;BME280;65885;55.848;35.916;2023-03-14T11:51:08;98316.09;;;8.12;59.99
76940;BME280;65885;55.848;35.916;2023-03-14T11:53:54;98332.59;;;8.12;60.91
76940;BME280;65885;55.848;35.916;2023-03-14T11:56:29;98322.44;;;8.23;60.29
76940;BME280;65885;55.848;35.916;2023-03-14T11:59:02;98320.81;;;8.40;59.48
76940;BME280;65885;55.848;35.916;2023-03-14T12:01:50;98320.88;;;8.55;59.57
76940;BME280;65885;55.848;35.916;2023-03-14T12:04:35;98308.78;;;8.70;59.29
76940;BME280;65885;55.848;35.916;2023-03-14T12:07:12;98314.06;;;8.86;59.26
76940;BME280;65885;55.848;35.916;2023-03-14T12:09:43;98315.94;;;9.00;59.63
76940;BME280;65885;55.848;35.916;2023-03-14T12:12:13;98316.38;;;9.08;58.78
76940;BME280;65885;55.848;35.916;2023-03-14T12:14:46;98316.38;;;9.08;58.57
76940;BME280;65885;55.848;35.916;2023-03-14T12:17:21;98318.47;;;9.01;58.61
76940;BME280;65885;55.848;35.916;2023-03-14T12:20:01;98320.78;;;8.90;58.62
76940;BME280;65885;55.848;35.916;2023-03-14T12:22:33;98316.13;;;8.79;58.92
76940;BME280;65885;55.848;35.916;2023-03-14T12:25:12;98320.22;;;8.68;59.26
76940;BME280;65885;55.848;35.916;2023-03-14T12:27:47;98320.03;;;8.55;59.65
76940;BME280;65885;55.848;35.916;2023-03-14T12:30:18;98317.09;;;8.44;59.78
76940;BME280;65885;55.848;35.916;2023-03-14T12:33:29;98314.81;;;8.38;59.30
76940;BME280;65885;55.848;35.916;2023-03-14T12:36:00;98318.59;;;8.30;58.75
76940;BME280;65885;55.848;35.916;2023-03-14T12:38:37;98323.31;;;8.24;58.92
76940;BME280;65885;55.848;35.916;2023-03-14T12:41:17;98334.19;;;8.15;60.37
76940;BME280;65885;55.848;35.916;2023-03-14T12:43:46;98336.28;;;8.08;60.56
76940;BME280;65885;55.848;35.916;2023-03-14T12:46:24;98323.75;;;8.15;60.82
76940;BME280;65885;55.848;35.916;2023-03-14T12:48:55;98321.22;;;8.30;59.94
76940;BME280;65885;55.848;35.916;2023-03-14T12:51:35;98329.25;;;8.45;60.11
76940;BME280;65885;55.848;35.916;2023-03-14T12:54:24;98330.09;;;8.63;60.27
76940;BME280;65885;55.848;35.916;2023-03-14T12:57:06;98319.59;;;8.80;59.96
76940;BME280;65885;55.848;35.916;2023-03-14T12:59:37;98327.56;;;8.94;59.36
76940;BME280;65885;55.848;35.916;2023-03-14T13:02:23;98319.47;;;8.99;58.47
76940;BME280;65885;55.848;35.916;2023-03-14T13:04:53;98318.88;;;8.94;58.79
76940;BME280;65885;55.848;35.916;2023-03-14T13:07:32;98293.22;;;8.84;58.46
76940;BME280;65885;55.848;35.916;2023-03-14T13:10:03;98313.09;;;8.71;58.60
76940;BME280;65885;55.848;35.916;2023-03-14T13:12:38;98316.50;;;8.56;59.22
76940;BME280;65885;55.848;35.916;2023-03-14T13:15:17;98315.41;;;8.43;59.10